METAR Data
IDs: Format: Raw Decoded Include TAF

Data at: 1425 UTC 11 Dec 2018

KBMQ 111353Z AUTO 00000KT 10SM CLR 01/M01 A3037 RMK AO2 SLP287 T00111011
KBMQ 111253Z AUTO 00000KT 10SM CLR 01/M02 A3037 RMK AO2 SLP289 T00061017 $
KBMQ 111153Z AUTO 00000KT 10SM CLR 01/M02 A3037 RMK AO2 SLP286 T00061017 10022 20000 58001 $
KBMQ 111053Z AUTO 00000KT 10SM CLR 01/M02 A3037 RMK AO2 SLP285 T00061022 $
KBMQ 110953Z AUTO 00000KT 10SM CLR 01/M02 A3038 RMK AO2 SLP286 T00111017 $
KBMQ 110853Z AUTO 00000KT 10SM CLR 02/M01 A3037 RMK AO2 SLP284 T00171011 56009 $
KBMQ 110753Z AUTO 00000KT 10SM CLR 01/M02 A3038 RMK AO2 SLP287 T00111017 $
KBMQ 110653Z AUTO 00000KT 10SM CLR 01/M02 A3039 RMK AO2 SLP292 T00111017 $
KBMQ 110553Z AUTO 00000KT 10SM CLR 01/M02 A3040 RMK AO2 SLP296 T00111022 10083 20011 401391006 51003
KBMQ 110453Z AUTO 00000KT 10SM CLR 02/M02 A3040 RMK AO2 SLP297 T00171017
KBMQ 110353Z AUTO 00000KT 10SM CLR 03/M02 A3040 RMK AO2 SLP297 T00281017
KBMQ 110253Z AUTO 02003KT 10SM CLR 03/M01 A3039 RMK AO2 SLP295 T00281011 50005
KBMQ 110153Z AUTO 00000KT 10SM CLR 04/M01 A3039 RMK AO2 SLP296 T00391006
KBMQ 110053Z AUTO 00000KT 10SM CLR 06/00 A3039 RMK AO2 SLP295 T00560000
KBMQ 102353Z AUTO 00000KT 10SM CLR 08/01 A3038 RMK AO2 SLP288 T00830011 10139 20083 53005
KBMQ 102253Z AUTO 00000KT 10SM CLR 13/M06 A3036 RMK AO2 SLP281 T01281056
KBMQ 102153Z AUTO VRB03KT 10SM CLR 13/M06 A3036 RMK AO2 SLP280 T01331056
KBMQ 102053Z AUTO VRB04KT 10SM CLR 13/M06 A3036 RMK AO2 SLP281 T01331056 56020
KBMQ 101953Z AUTO 27005KT 10SM CLR 13/M06 A3037 RMK AO2 SLP284 T01281056
KBMQ 101853Z AUTO 30005KT 10SM CLR 11/M06 A3039 RMK AO2 SLP291 T01111056
KBMQ 101753Z AUTO 28007KT 260V340 10SM CLR 10/M03 A3042 RMK AO2 SLP303 T01001033 10100 21006 58003
KBMQ 101653Z AUTO VRB05KT 10SM CLR 07/M01 A3045 RMK AO2 SLP311 T00721006
KBMQ 101553Z AUTO 30005KT 10SM CLR 06/M02 A3045 RMK AO2 SLP312 T00561022
KBMQ 101453Z AUTO 32005KT 10SM CLR 04/M02 A3043 RMK AO2 SLP308 T00441017 51017
KBMQ 101353Z AUTO 33004KT 10SM CLR 01/M01 A3042 RMK AO2 SLP305 T00111011
KBMQ 101253Z AUTO 00000KT 10SM CLR 01/M02 A3040 RMK AO2 SLP299 T00061017
KBMQ 101153Z AUTO 00000KT 10SM CLR 01/M03 A3038 RMK AO2 SLP291 T00111028 10033 21006 55001
KBMQ 101053Z AUTO VRB03KT 10SM CLR 00/M02 A3037 RMK AO2 SLP288 T00001022
KBMQ 100953Z AUTO VRB03KT 10SM CLR 01/M02 A3038 RMK AO2 SLP290 T00111017
KBMQ 100853Z AUTO 00000KT 10SM CLR 00/M02 A3038 RMK AO2 SLP291 T00001022 56006
KBMQ 100753Z AUTO 00000KT 10SM CLR 01/M02 A3039 RMK AO2 SLP293 T00061017
KBMQ 100653Z AUTO 00000KT 10SM CLR 02/M01 A3039 RMK AO2 SLP295 T00171011
KBMQ 100553Z AUTO 36005KT 10SM CLR 03/M01 A3040 RMK AO2 SLP296 T00331011 10067 20028 400940006 51005
KBMQ 100453Z AUTO 34005KT 10SM CLR 03/M01 A3040 RMK AO2 SLP296 T00331006
KBMQ 100353Z AUTO 34006KT 10SM CLR 04/00 A3039 RMK AO2 SLP294 T00390000
KBMQ 100253Z AUTO 33008KT 10SM CLR 06/00 A3039 RMK AO2 SLP293 T00560000 53017